Time,TemperatureF,DewpointF,PressureIn,WindDirection,WindDirectionDegrees,WindSpeedMPH,WindSpeedGustMPH,Humidity,HourlyPrecipIn,Conditions,Clouds,dailyrainin,SoftwareType,DateUTC
2013-06-22 00:02:00,51.4,48.3,29.91,N/A,-737280,0.0,-999.0,89,0.00,,,0.00,Wunderground v.1.15,2013-06-22 07:02:00,
2013-06-22 00:07:00,51.4,48.3,29.91,N/A,-737280,0.0,-999.0,89,0.00,,,0.00,Wunderground v.1.15,2013-06-22 07:07:00,
2013-06-22 00:12:00,51.2,48.4,29.92,N/A,-737280,0.0,-999.0,90,0.00,,,0.00,Wunderground v.1.15,2013-06-22 07:12:00,
2013-06-22 00:17:00,51.2,48.4,29.92,N/A,-737280,0.0,-999.0,90,0.00,,,0.00,Wunderground v.1.15,2013-06-22 07:17:00,
2013-06-22 00:22:00,51.0,48.2,29.91,N/A,-737280,0.0,-999.0,90,0.00,,,0.00,Wunderground v.1.15,2013-06-22 07:22:00,
2013-06-22 00:27:00,50.9,48.1,29.91,N/A,-737280,0.0,-999.0,90,0.00,,,0.00,Wunderground v.1.15,2013-06-22 07:27:00,
2013-06-22 00:32:00,50.8,48.0,29.91,N/A,-737280,0.0,-999.0,90,0.00,,,0.00,Wunderground v.1.15,2013-06-22 07:32:00,
2013-06-22 00:37:00,50.7,47.9,29.91,N/A,-737280,0.0,-999.0,90,0.00,,,0.00,Wunderground v.1.15,2013-06-22 07:37:00,
2013-06-22 00:47:00,50.5,47.7,29.91,East,90,0.0,-999.0,90,0.00,,,0.00,Wunderground v.1.15,2013-06-22 07:47:00,
2013-06-22 00:52:00,50.4,47.6,29.91,East,90,0.0,-999.0,90,0.00,,,0.00,Wunderground v.1.15,2013-06-22 07:52:00,
2013-06-22 00:57:00,50.4,47.9,29.90,N/A,-737280,0.0,-999.0,91,0.00,,,0.00,Wunderground v.1.15,2013-06-22 07:57:00,
2013-06-22 01:02:00,50.3,47.5,29.90,N/A,-737280,0.0,-999.0,90,0.00,,,0.00,Wunderground v.1.15,2013-06-22 08:02:00,
2013-06-22 01:07:00,50.2,47.4,29.90,N/A,-737280,0.0,-999.0,90,0.00,,,0.00,Wunderground v.1.15,2013-06-22 08:07:00,
2013-06-22 01:12:00,50.0,47.2,29.90,N/A,-737280,0.0,-999.0,90,0.00,,,0.00,Wunderground v.1.15,2013-06-22 08:12:00,
2013-06-22 01:17:00,50.0,47.2,29.90,N/A,-737280,0.0,-999.0,90,0.00,,,0.00,Wunderground v.1.15,2013-06-22 08:17:00,
2013-06-22 01:22:00,49.8,47.3,29.90,N/A,-737280,0.0,-999.0,91,0.00,,,0.00,Wunderground v.1.15,2013-06-22 08:22:00,
2013-06-22 01:27:00,49.7,47.2,29.90,N/A,-737280,0.0,-999.0,91,0.00,,,0.00,Wunderground v.1.15,2013-06-22 08:27:00,
2013-06-22 01:32:00,49.7,47.2,29.90,N/A,-737280,0.0,-999.0,91,0.00,,,0.00,Wunderground v.1.15,2013-06-22 08:32:00,
2013-06-22 01:37:00,49.6,47.1,29.89,N/A,-737280,0.0,-999.0,91,0.00,,,0.00,Wunderground v.1.15,2013-06-22 08:37:00,
2013-06-22 01:42:00,49.5,47.0,29.89,East,90,0.0,-999.0,91,0.00,,,0.00,Wunderground v.1.15,2013-06-22 08:42:00,
2013-06-22 01:47:00,49.5,47.0,29.89,N/A,-737280,0.0,-999.0,91,0.00,,,0.00,Wunderground v.1.15,2013-06-22 08:47:00,
2013-06-22 01:52:00,49.4,46.9,29.89,N/A,-737280,0.0,-999.0,91,0.00,,,0.00,Wunderground v.1.15,2013-06-22 08:52:00,
2013-06-22 01:57:00,49.4,46.9,29.89,N/A,-737280,0.0,-999.0,91,0.00,,,0.00,Wunderground v.1.15,2013-06-22 08:57:00,
2013-06-22 02:02:00,49.3,46.8,29.89,East,90,0.0,-999.0,91,0.00,,,0.00,Wunderground v.1.15,2013-06-22 09:02:00,
2013-06-22 02:07:00,49.3,46.8,29.89,N/A,-737280,0.0,-999.0,91,0.00,,,0.00,Wunderground v.1.15,2013-06-22 09:07:00,
2013-06-22 02:12:00,49.3,46.8,29.88,N/A,-737280,0.0,-999.0,91,0.00,,,0.00,Wunderground v.1.15,2013-06-22 09:12:00,
2013-06-22 02:17:00,49.2,46.7,29.88,East,90,0.0,-999.0,91,0.00,,,0.00,Wunderground v.1.15,2013-06-22 09:17:00,
2013-06-22 02:22:00,49.2,46.7,29.88,East,90,0.0,-999.0,91,0.00,,,0.00,Wunderground v.1.15,2013-06-22 09:22:00,
2013-06-22 02:27:00,49.2,46.7,29.88,N/A,-737280,0.0,-999.0,91,0.00,,,0.00,Wunderground v.1.15,2013-06-22 09:27:00,
2013-06-22 02:32:00,49.3,47.1,29.88,N/A,-737280,0.0,-999.0,92,0.00,,,0.00,Wunderground v.1.15,2013-06-22 09:32:00,
2013-06-22 02:37:00,49.4,46.9,29.88,N/A,-737280,0.0,-999.0,91,0.00,,,0.00,Wunderground v.1.15,2013-06-22 09:37:00,
2013-06-22 02:42:00,49.4,46.9,29.88,N/A,-737280,0.0,-999.0,91,0.00,,,0.00,Wunderground v.1.15,2013-06-22 09:42:00,
2013-06-22 02:47:00,49.3,46.8,29.88,East,90,0.0,-999.0,91,0.00,,,0.00,Wunderground v.1.15,2013-06-22 09:47:00,
2013-06-22 02:52:00,49.2,46.7,29.88,N/A,-737280,0.0,-999.0,91,0.00,,,0.00,Wunderground v.1.15,2013-06-22 09:52:00,
2013-06-22 02:57:00,49.2,46.7,29.88,N/A,-737280,0.0,-999.0,91,0.00,,,0.00,Wunderground v.1.15,2013-06-22 09:57:00,
2013-06-22 03:02:00,49.2,46.7,29.88,N/A,-737280,0.0,-999.0,91,0.00,,,0.00,Wunderground v.1.15,2013-06-22 10:02:00,
2013-06-22 03:07:00,49.2,46.7,29.88,N/A,-737280,0.0,-999.0,91,0.00,,,0.00,Wunderground v.1.15,2013-06-22 10:07:00,
2013-06-22 03:12:00,49.3,46.8,29.89,N/A,-737280,0.0,-999.0,91,0.00,,,0.00,Wunderground v.1.15,2013-06-22 10:12:00,
2013-06-22 03:17:00,49.3,46.8,29.89,N/A,-737280,0.0,-999.0,91,0.00,,,0.00,Wunderground v.1.15,2013-06-22 10:17:00,
2013-06-22 03:22:00,49.3,46.8,29.88,East,90,0.0,-999.0,91,0.00,,,0.00,Wunderground v.1.15,2013-06-22 10:22:00,
2013-06-22 03:27:00,49.3,46.8,29.88,N/A,-737280,0.0,-999.0,91,0.00,,,0.00,Wunderground v.1.15,2013-06-22 10:27:00,
2013-06-22 03:32:00,49.2,46.7,29.88,N/A,-737280,0.0,-999.0,91,0.00,,,0.00,Wunderground v.1.15,2013-06-22 10:32:00,
2013-06-22 03:37:00,49.2,46.7,29.88,N/A,-737280,0.0,-999.0,91,0.00,,,0.00,Wunderground v.1.15,2013-06-22 10:37:00,
2013-06-22 03:42:00,49.3,46.8,29.88,N/A,-737280,0.0,-999.0,91,0.00,,,0.00,Wunderground v.1.15,2013-06-22 10:42:00,
2013-06-22 03:47:00,49.2,46.7,29.88,N/A,-737280,0.0,-999.0,91,0.00,,,0.00,Wunderground v.1.15,2013-06-22 10:47:00,
2013-06-22 03:52:00,49.2,46.7,29.87,East,90,0.0,-999.0,91,0.00,,,0.00,Wunderground v.1.15,2013-06-22 10:52:00,
2013-06-22 03:57:00,49.3,46.8,29.87,N/A,-737280,0.0,-999.0,91,0.00,,,0.00,Wunderground v.1.15,2013-06-22 10:57:00,
2013-06-22 04:02:00,49.3,46.8,29.88,N/A,-737280,0.0,-999.0,91,0.00,,,0.00,Wunderground v.1.15,2013-06-22 11:02:00,
2013-06-22 04:07:00,49.4,46.9,29.88,N/A,-737280,0.0,-999.0,91,0.00,,,0.00,Wunderground v.1.15,2013-06-22 11:07:00,
2013-06-22 04:12:00,49.3,46.8,29.88,N/A,-737280,0.0,-999.0,91,0.00,,,0.00,Wunderground v.1.15,2013-06-22 11:12:00,
2013-06-22 04:17:00,49.2,46.7,29.88,N/A,-737280,0.0,-999.0,91,0.00,,,0.00,Wunderground v.1.15,2013-06-22 11:17:00,
2013-06-22 04:22:00,49.2,46.7,29.88,N/A,-737280,0.0,-999.0,91,0.00,,,0.00,Wunderground v.1.15,2013-06-22 11:22:00,
2013-06-22 04:27:00,49.2,46.7,29.88,N/A,-737280,0.0,-999.0,91,0.00,,,0.00,Wunderground v.1.15,2013-06-22 11:27:00,
2013-06-22 04:32:00,49.1,46.6,29.88,N/A,-737280,0.0,-999.0,91,0.00,,,0.00,Wunderground v.1.15,2013-06-22 11:32:00,
2013-06-22 04:37:00,49.2,46.7,29.88,N/A,-737280,0.0,-999.0,91,0.00,,,0.00,Wunderground v.1.15,2013-06-22 11:37:00,
2013-06-22 04:42:00,49.1,46.6,29.88,N/A,-737280,0.0,-999.0,91,0.00,,,0.00,Wunderground v.1.15,2013-06-22 11:42:00,
2013-06-22 04:47:00,49.1,46.6,29.87,East,90,0.0,-999.0,91,0.00,,,0.00,Wunderground v.1.15,2013-06-22 11:47:00,
2013-06-22 04:52:00,49.2,46.7,29.87,East,90,0.0,-999.0,91,0.00,,,0.00,Wunderground v.1.15,2013-06-22 11:52:00,
2013-06-22 04:57:00,49.2,46.7,29.87,N/A,-737280,0.0,-999.0,91,0.00,,,0.00,Wunderground v.1.15,2013-06-22 11:57:00,
2013-06-22 05:02:00,49.2,47.0,29.87,N/A,-737280,0.0,-999.0,92,0.00,,,0.00,Wunderground v.1.15,2013-06-22 12:02:00,
2013-06-22 05:07:00,49.3,47.1,29.88,East,90,0.0,-999.0,92,0.00,,,0.00,Wunderground v.1.15,2013-06-22 12:07:00,
2013-06-22 05:12:00,49.3,47.1,29.88,East,90,0.0,-999.0,92,0.00,,,0.00,Wunderground v.1.15,2013-06-22 12:12:00,
2013-06-22 05:17:00,49.3,47.1,29.88,East,90,1.0,-999.0,92,0.00,,,0.00,Wunderground v.1.15,2013-06-22 12:17:00,
2013-06-22 05:22:00,49.4,47.2,29.88,N/A,-737280,0.0,-999.0,92,0.00,,,0.00,Wunderground v.1.15,2013-06-22 12:22:00,
2013-06-22 05:27:00,49.4,47.2,29.88,N/A,-737280,0.0,-999.0,92,0.00,,,0.00,Wunderground v.1.15,2013-06-22 12:27:00,
2013-06-22 05:32:00,49.3,46.8,29.88,N/A,-737280,0.0,-999.0,91,0.00,,,0.00,Wunderground v.1.15,2013-06-22 12:32:00,
2013-06-22 05:37:00,49.2,46.7,29.88,N/A,-737280,0.0,-999.0,91,0.00,,,0.00,Wunderground v.1.15,2013-06-22 12:37:00,
2013-06-22 05:42:00,49.0,46.5,29.88,N/A,-737280,0.0,-999.0,91,0.00,,,0.00,Wunderground v.1.15,2013-06-22 12:42:00,
2013-06-22 05:47:00,49.0,46.5,29.88,N/A,-737280,0.0,-999.0,91,0.00,,,0.00,Wunderground v.1.15,2013-06-22 12:47:00,
2013-06-22 05:52:00,48.9,46.4,29.89,East,90,0.0,-999.0,91,0.00,,,0.00,Wunderground v.1.15,2013-06-22 12:52:00,
2013-06-22 05:57:00,48.9,46.4,29.89,N/A,-737280,0.0,-999.0,91,0.00,,,0.00,Wunderground v.1.15,2013-06-22 12:57:00,
2013-06-22 06:02:00,48.9,46.7,29.89,N/A,-737280,0.0,-999.0,92,0.00,,,0.00,Wunderground v.1.15,2013-06-22 13:02:00,
2013-06-22 06:07:00,49.0,46.8,29.89,East,90,0.0,-999.0,92,0.00,,,0.00,Wunderground v.1.15,2013-06-22 13:07:00,
2013-06-22 06:12:00,49.0,46.8,29.89,N/A,-737280,0.0,-999.0,92,0.00,,,0.00,Wunderground v.1.15,2013-06-22 13:12:00,
2013-06-22 06:17:00,49.2,47.3,29.89,N/A,-737280,0.0,-999.0,93,0.00,,,0.00,Wunderground v.1.15,2013-06-22 13:17:00,
2013-06-22 06:22:00,49.4,47.5,29.89,N/A,-737280,0.0,-999.0,93,0.00,,,0.00,Wunderground v.1.15,2013-06-22 13:22:00,
2013-06-22 06:27:00,49.5,47.6,29.89,N/A,-737280,0.0,-999.0,93,0.00,,,0.00,Wunderground v.1.15,2013-06-22 13:27:00,
2013-06-22 06:32:00,49.6,47.7,29.89,East,90,0.0,-999.0,93,0.00,,,0.00,Wunderground v.1.15,2013-06-22 13:32:00,
2013-06-22 06:37:00,49.7,47.8,29.89,East,90,0.0,-999.0,93,0.00,,,0.00,Wunderground v.1.15,2013-06-22 13:37:00,
2013-06-22 06:42:00,49.9,48.0,29.89,East,90,0.0,-999.0,93,0.00,,,0.00,Wunderground v.1.15,2013-06-22 13:42:00,
2013-06-22 06:47:00,50.1,48.2,29.89,East,90,0.0,-999.0,93,0.00,,,0.00,Wunderground v.1.15,2013-06-22 13:47:00,
2013-06-22 06:52:00,50.3,48.4,29.89,East,90,0.0,-999.0,93,0.00,,,0.00,Wunderground v.1.15,2013-06-22 13:52:00,
2013-06-22 06:57:00,50.5,48.6,29.89,East,90,0.0,-999.0,93,0.00,,,0.00,Wunderground v.1.15,2013-06-22 13:57:00,
2013-06-22 07:02:00,50.8,48.8,29.89,East,90,0.0,-999.0,93,0.00,,,0.00,Wunderground v.1.15,2013-06-22 14:02:00,
2013-06-22 07:07:00,51.0,48.8,29.89,East,90,0.0,-999.0,92,0.00,,,0.00,Wunderground v.1.15,2013-06-22 14:07:00,
2013-06-22 07:12:00,51.3,49.1,29.89,N/A,-737280,0.0,-999.0,92,0.00,,,0.00,Wunderground v.1.15,2013-06-22 14:12:00,
2013-06-22 07:17:00,51.6,49.4,29.90,N/A,-737280,0.0,-999.0,92,0.00,,,0.00,Wunderground v.1.15,2013-06-22 14:17:00,
2013-06-22 07:22:00,52.1,49.8,29.90,N/A,-737280,0.0,-999.0,92,0.00,,,0.00,Wunderground v.1.15,2013-06-22 14:22:00,
2013-06-22 07:27:00,52.5,49.9,29.90,N/A,-737280,0.0,-999.0,91,0.00,,,0.00,Wunderground v.1.15,2013-06-22 14:27:00,
2013-06-22 07:32:00,53.1,50.5,29.90,East,90,0.0,-999.0,91,0.00,,,0.00,Wunderground v.1.15,2013-06-22 14:32:00,
2013-06-22 07:37:00,53.6,50.7,29.90,N/A,-737280,0.0,-999.0,90,0.00,,,0.00,Wunderground v.1.15,2013-06-22 14:37:00,
2013-06-22 07:42:00,54.3,51.4,29.90,ENE,68,1.0,-999.0,90,0.00,,,0.00,Wunderground v.1.15,2013-06-22 14:42:00,
2013-06-22 07:47:00,54.9,51.7,29.90,ENE,68,1.0,-999.0,89,0.00,,,0.00,Wunderground v.1.15,2013-06-22 14:47:00,
2013-06-22 07:52:00,55.7,51.9,29.90,ENE,68,1.0,-999.0,87,0.00,,,0.00,Wunderground v.1.15,2013-06-22 14:52:00,
2013-06-22 07:57:00,56.3,51.8,29.90,ENE,68,0.0,-999.0,85,0.00,,,0.00,Wunderground v.1.15,2013-06-22 14:57:00,
2013-06-22 08:02:00,56.9,52.1,29.90,ENE,68,0.0,-999.0,84,0.00,,,0.00,Wunderground v.1.15,2013-06-22 15:02:00,
2013-06-22 08:07:00,57.8,52.0,29.90,ENE,68,0.0,-999.0,81,0.00,,,0.00,Wunderground v.1.15,2013-06-22 15:07:00,
2013-06-22 08:12:00,58.9,52.4,29.90,WSW,248,1.0,-999.0,79,0.00,,,0.00,Wunderground v.1.15,2013-06-22 15:12:00,
2013-06-22 08:17:00,59.8,52.9,29.91,WSW,248,4.0,-999.0,78,0.00,,,0.00,Wunderground v.1.15,2013-06-22 15:17:00,
2013-06-22 08:22:00,60.1,52.9,29.91,WSW,248,4.0,-999.0,77,0.00,,,0.00,Wunderground v.1.15,2013-06-22 15:22:00,
2013-06-22 08:27:00,60.3,53.1,29.91,West,270,2.0,-999.0,77,0.00,,,0.00,Wunderground v.1.15,2013-06-22 15:27:00,
2013-06-22 08:32:00,60.6,52.6,29.91,West,270,1.0,-999.0,75,0.00,,,0.00,Wunderground v.1.15,2013-06-22 15:32:00,
2013-06-22 08:37:00,61.1,53.1,29.91,WSW,248,2.0,-999.0,75,0.00,,,0.00,Wunderground v.1.15,2013-06-22 15:37:00,
2013-06-22 08:42:00,61.6,53.2,29.91,WSW,248,3.0,-999.0,74,0.00,,,0.00,Wunderground v.1.15,2013-06-22 15:42:00,
2013-06-22 08:47:00,62.2,53.1,29.91,SW,225,2.0,-999.0,72,0.00,,,0.00,Wunderground v.1.15,2013-06-22 15:47:00,
2013-06-22 08:52:00,62.6,53.1,29.91,WSW,248,3.0,-999.0,71,0.00,,,0.00,Wunderground v.1.15,2013-06-22 15:52:00,
2013-06-22 08:57:00,62.9,53.4,29.91,WSW,248,3.0,-999.0,71,0.00,,,0.00,Wunderground v.1.15,2013-06-22 15:57:00,
2013-06-22 09:02:00,63.2,53.3,29.91,WSW,248,3.0,-999.0,70,0.00,,,0.00,Wunderground v.1.15,2013-06-22 16:02:00,
2013-06-22 09:07:00,63.5,53.1,29.91,WSW,248,3.0,-999.0,69,0.00,,,0.00,Wunderground v.1.15,2013-06-22 16:07:00,
2013-06-22 09:12:00,63.9,53.1,29.91,WSW,248,3.0,-999.0,68,0.00,,,0.00,Wunderground v.1.15,2013-06-22 16:12:00,
2013-06-22 09:17:00,64.4,53.6,29.91,WSW,248,3.0,-999.0,68,0.00,,,0.00,Wunderground v.1.15,2013-06-22 16:17:00,
2013-06-22 09:22:00,64.9,53.7,29.91,WSW,248,2.0,-999.0,67,0.00,,,0.00,Wunderground v.1.15,2013-06-22 16:22:00,
2013-06-22 09:27:00,65.5,53.8,29.91,SW,225,2.0,-999.0,66,0.00,,,0.00,Wunderground v.1.15,2013-06-22 16:27:00,
2013-06-22 09:32:00,66.1,53.6,29.91,SW,225,3.0,-999.0,64,0.00,,,0.00,Wunderground v.1.15,2013-06-22 16:32:00,
2013-06-22 09:37:00,66.3,53.8,29.91,WSW,248,3.0,-999.0,64,0.00,,,0.00,Wunderground v.1.15,2013-06-22 16:37:00,
2013-06-22 09:42:00,66.5,53.5,29.91,WSW,248,2.0,-999.0,63,0.00,,,0.00,Wunderground v.1.15,2013-06-22 16:42:00,
2013-06-22 09:47:00,67.2,54.2,29.91,SSW,203,1.0,-999.0,63,0.00,,,0.00,Wunderground v.1.15,2013-06-22 16:47:00,
2013-06-22 09:52:00,68.1,54.1,29.91,SW,225,3.0,-999.0,61,0.00,,,0.00,Wunderground v.1.15,2013-06-22 16:52:00,
2013-06-22 09:57:00,68.5,54.1,29.91,SW,225,3.0,-999.0,60,0.00,,,0.00,Wunderground v.1.15,2013-06-22 16:57:00,
2013-06-22 10:02:00,68.8,54.3,29.91,SW,225,3.0,-999.0,60,0.00,,,0.00,Wunderground v.1.15,2013-06-22 17:02:00,
2013-06-22 10:07:00,69.5,54.5,29.91,SSW,203,3.0,-999.0,59,0.00,,,0.00,Wunderground v.1.15,2013-06-22 17:07:00,
2013-06-22 10:12:00,70.3,53.9,29.91,SSW,203,4.0,-999.0,56,0.00,,,0.00,Wunderground v.1.15,2013-06-22 17:12:00,
2013-06-22 10:17:00,71.0,54.0,29.91,South,180,3.0,-999.0,55,0.00,,,0.00,Wunderground v.1.15,2013-06-22 17:17:00,
2013-06-22 10:22:00,71.5,52.9,29.91,SW,225,3.0,-999.0,52,0.00,,,0.00,Wunderground v.1.15,2013-06-22 17:22:00,
2013-06-22 10:27:00,71.8,53.7,29.91,WSW,248,4.0,-999.0,53,0.00,,,0.00,Wunderground v.1.15,2013-06-22 17:27:00,
2013-06-22 10:32:00,71.8,53.7,29.91,SW,225,5.0,-999.0,53,0.00,,,0.00,Wunderground v.1.15,2013-06-22 17:32:00,
2013-06-22 10:37:00,72.2,54.1,29.91,SW,225,4.0,-999.0,53,0.00,,,0.00,Wunderground v.1.15,2013-06-22 17:37:00,
2013-06-22 10:42:00,72.8,53.1,29.91,SW,225,4.0,-999.0,50,0.00,,,0.00,Wunderground v.1.15,2013-06-22 17:42:00,
2013-06-22 10:47:00,73.3,53.5,29.91,SW,225,4.0,-999.0,50,0.00,,,0.00,Wunderground v.1.15,2013-06-22 17:47:00,
2013-06-22 10:52:00,73.7,52.8,29.91,South,180,4.0,-999.0,48,0.00,,,0.00,Wunderground v.1.15,2013-06-22 17:52:00,
2013-06-22 10:57:00,73.7,53.3,29.91,SW,225,5.0,-999.0,49,0.00,,,0.00,Wunderground v.1.15,2013-06-22 17:57:00,
2013-06-22 11:02:00,74.2,53.2,29.91,SSW,203,4.0,-999.0,48,0.00,,,0.00,Wunderground v.1.15,2013-06-22 18:02:00,
2013-06-22 11:07:00,74.7,53.1,29.90,SSW,203,4.0,-999.0,47,0.00,,,0.00,Wunderground v.1.15,2013-06-22 18:07:00,
2013-06-22 11:12:00,75.4,53.2,29.90,South,180,4.0,-999.0,46,0.00,,,0.00,Wunderground v.1.15,2013-06-22 18:12:00,
2013-06-22 11:17:00,75.8,54.7,29.90,SW,225,4.0,-999.0,48,0.00,,,0.00,Wunderground v.1.15,2013-06-22 18:17:00,
2013-06-22 11:22:00,76.3,53.4,29.90,SW,225,3.0,-999.0,45,0.00,,,0.00,Wunderground v.1.15,2013-06-22 18:22:00,
2013-06-22 11:27:00,76.9,53.3,29.90,SSW,203,4.0,-999.0,44,0.00,,,0.00,Wunderground v.1.15,2013-06-22 18:27:00,
2013-06-22 11:32:00,77.5,52.6,29.90,SSW,203,3.0,-999.0,42,0.00,,,0.00,Wunderground v.1.15,2013-06-22 18:32:00,
2013-06-22 11:37:00,77.3,53.1,29.90,SW,225,6.0,-999.0,43,0.00,,,0.00,Wunderground v.1.15,2013-06-22 18:37:00,
2013-06-22 11:42:00,77.2,52.3,29.90,SSW,203,6.0,-999.0,42,0.00,,,0.00,Wunderground v.1.15,2013-06-22 18:42:00,
2013-06-22 11:47:00,77.5,52.6,29.90,SW,225,5.0,-999.0,42,0.00,,,0.00,Wunderground v.1.15,2013-06-22 18:47:00,
2013-06-22 11:52:00,77.8,51.5,29.90,SW,225,7.0,-999.0,40,0.00,,,0.00,Wunderground v.1.15,2013-06-22 18:52:00,
2013-06-22 11:57:00,77.8,50.9,29.90,SW,225,6.0,-999.0,39,0.00,,,0.00,Wunderground v.1.15,2013-06-22 18:57:00,
2013-06-22 12:02:00,77.9,51.6,29.90,SW,225,7.0,-999.0,40,0.00,,,0.00,Wunderground v.1.15,2013-06-22 19:02:00,
2013-06-22 12:07:00,77.5,51.3,29.90,SW,225,6.0,-999.0,40,0.00,,,0.00,Wunderground v.1.15,2013-06-22 19:07:00,
2013-06-22 12:12:00,77.6,50.7,29.90,SW,225,6.0,-999.0,39,0.00,,,0.00,Wunderground v.1.15,2013-06-22 19:12:00,
2013-06-22 12:17:00,77.6,50.7,29.90,SW,225,7.0,-999.0,39,0.00,,,0.00,Wunderground v.1.15,2013-06-22 19:17:00,
2013-06-22 12:22:00,77.7,50.8,29.90,SW,225,7.0,-999.0,39,0.00,,,0.00,Wunderground v.1.15,2013-06-22 19:22:00,
2013-06-22 12:27:00,77.5,50.6,29.90,SW,225,7.0,-999.0,39,0.00,,,0.00,Wunderground v.1.15,2013-06-22 19:27:00,
2013-06-22 12:32:00,78.0,49.6,29.89,SW,225,7.0,-999.0,37,0.00,,,0.00,Wunderground v.1.15,2013-06-22 19:32:00,
2013-06-22 12:37:00,78.6,49.4,29.90,SW,225,6.0,-999.0,36,0.00,,,0.00,Wunderground v.1.15,2013-06-22 19:37:00,
2013-06-22 12:42:00,78.5,49.3,29.90,SW,225,7.0,-999.0,36,0.00,,,0.00,Wunderground v.1.15,2013-06-22 19:42:00,
2013-06-22 12:47:00,78.0,48.9,29.89,SW,225,8.0,-999.0,36,0.00,,,0.00,Wunderground v.1.15,2013-06-22 19:47:00,
2013-06-22 12:52:00,78.2,49.1,29.90,SW,225,6.0,-999.0,36,0.00,,,0.00,Wunderground v.1.15,2013-06-22 19:52:00,
2013-06-22 12:57:00,78.5,50.1,29.89,SW,225,8.0,-999.0,37,0.00,,,0.00,Wunderground v.1.15,2013-06-22 19:57:00,
2013-06-22 13:02:00,78.5,50.1,29.89,SW,225,8.0,-999.0,37,0.00,,,0.00,Wunderground v.1.15,2013-06-22 20:02:00,
2013-06-22 13:07:00,78.8,51.7,29.90,WSW,248,4.0,-999.0,39,0.00,,,0.00,Wunderground v.1.15,2013-06-22 20:07:00,
2013-06-22 13:12:00,79.6,49.5,29.89,SW,225,5.0,-999.0,35,0.00,,,0.00,Wunderground v.1.15,2013-06-22 20:12:00,
2013-06-22 13:17:00,79.7,48.8,29.89,WSW,248,5.0,-999.0,34,0.00,,,0.00,Wunderground v.1.15,2013-06-22 20:17:00,
2013-06-22 13:22:00,79.9,48.2,29.89,WSW,248,5.0,-999.0,33,0.00,,,0.00,Wunderground v.1.15,2013-06-22 20:22:00,
2013-06-22 13:27:00,80.5,48.7,29.89,NW,315,4.0,-999.0,33,0.00,,,0.00,Wunderground v.1.15,2013-06-22 20:27:00,
2013-06-22 13:32:00,81.5,49.6,29.89,NW,315,4.0,-999.0,33,0.00,,,0.00,Wunderground v.1.15,2013-06-22 20:32:00,
2013-06-22 13:37:00,81.7,51.4,29.89,SW,225,6.0,-999.0,35,0.00,,,0.00,Wunderground v.1.15,2013-06-22 20:37:00,
2013-06-22 13:42:00,80.9,51.4,29.89,SW,225,6.0,-999.0,36,0.00,,,0.00,Wunderground v.1.15,2013-06-22 20:42:00,
2013-06-22 13:47:00,80.5,51.1,29.89,SW,225,7.0,-999.0,36,0.00,,,0.00,Wunderground v.1.15,2013-06-22 20:47:00,
2013-06-22 13:52:00,80.1,50.7,29.89,SSW,203,8.0,-999.0,36,0.00,,,0.00,Wunderground v.1.15,2013-06-22 20:52:00,
2013-06-22 13:57:00,80.5,51.1,29.89,WSW,248,6.0,-999.0,36,0.00,,,0.00,Wunderground v.1.15,2013-06-22 20:57:00,
2013-06-22 14:02:00,80.6,51.2,29.88,SW,225,6.0,-999.0,36,0.00,,,0.00,Wunderground v.1.15,2013-06-22 21:02:00,
2013-06-22 14:07:00,80.4,52.5,29.88,SW,225,6.0,-999.0,38,0.00,,,0.00,Wunderground v.1.15,2013-06-22 21:07:00,
2013-06-22 14:12:00,80.5,51.1,29.88,SW,225,6.0,-999.0,36,0.00,,,0.00,Wunderground v.1.15,2013-06-22 21:12:00,
2013-06-22 14:17:00,80.0,51.4,29.88,SW,225,7.0,-999.0,37,0.00,,,0.00,Wunderground v.1.15,2013-06-22 21:17:00,
2013-06-22 14:22:00,80.2,50.8,29.88,SW,225,6.0,-999.0,36,0.00,,,0.00,Wunderground v.1.15,2013-06-22 21:22:00,
2013-06-22 14:27:00,80.4,51.0,29.88,WSW,248,5.0,-999.0,36,0.00,,,0.00,Wunderground v.1.15,2013-06-22 21:27:00,
2013-06-22 14:32:00,81.4,51.1,29.88,West,270,5.0,-999.0,35,0.00,,,0.00,Wunderground v.1.15,2013-06-22 21:32:00,
2013-06-22 14:37:00,80.7,50.5,29.88,SW,225,8.0,-999.0,35,0.00,,,0.00,Wunderground v.1.15,2013-06-22 21:37:00,
2013-06-22 14:42:00,80.4,51.0,29.88,SW,225,7.0,-999.0,36,0.00,,,0.00,Wunderground v.1.15,2013-06-22 21:42:00,
2013-06-22 14:47:00,80.3,53.1,29.88,SW,225,7.0,-999.0,39,0.00,,,0.00,Wunderground v.1.15,2013-06-22 21:47:00,
2013-06-22 14:52:00,80.3,53.8,29.87,SW,225,6.0,-999.0,40,0.00,,,0.00,Wunderground v.1.15,2013-06-22 21:52:00,
2013-06-22 14:57:00,80.0,53.5,29.87,SW,225,7.0,-999.0,40,0.00,,,0.00,Wunderground v.1.15,2013-06-22 21:57:00,
2013-06-22 15:02:00,79.4,53.0,29.87,SW,225,8.0,-999.0,40,0.00,,,0.00,Wunderground v.1.15,2013-06-22 22:02:00,
2013-06-22 15:07:00,79.1,53.4,29.87,SW,225,9.0,-999.0,41,0.00,,,0.00,Wunderground v.1.15,2013-06-22 22:07:00,
2013-06-22 15:12:00,78.2,53.2,29.88,SW,225,10.0,-999.0,42,0.00,,,0.00,Wunderground v.1.15,2013-06-22 22:12:00,
2013-06-22 15:17:00,76.8,52.6,29.88,SW,225,10.0,-999.0,43,0.00,,,0.00,Wunderground v.1.15,2013-06-22 22:17:00,
2013-06-22 15:22:00,75.3,53.1,29.88,SW,225,9.0,-999.0,46,0.00,,,0.00,Wunderground v.1.15,2013-06-22 22:22:00,
2013-06-22 15:27:00,75.0,53.4,29.88,SW,225,8.0,-999.0,47,0.00,,,0.00,Wunderground v.1.15,2013-06-22 22:27:00,
2013-06-22 15:32:00,74.2,52.7,29.88,SW,225,8.0,-999.0,47,0.00,,,0.00,Wunderground v.1.15,2013-06-22 22:32:00,
2013-06-22 15:37:00,73.8,55.1,29.88,WSW,248,7.0,-999.0,52,0.00,,,0.00,Wunderground v.1.15,2013-06-22 22:37:00,
2013-06-22 15:42:00,73.3,55.1,29.88,SW,225,8.0,-999.0,53,0.00,,,0.00,Wunderground v.1.15,2013-06-22 22:42:00,
2013-06-22 15:47:00,72.6,55.0,29.88,SW,225,9.0,-999.0,54,0.00,,,0.00,Wunderground v.1.15,2013-06-22 22:47:00,
2013-06-22 15:52:00,71.6,55.1,29.88,SW,225,8.0,-999.0,56,0.00,,,0.00,Wunderground v.1.15,2013-06-22 22:52:00,
2013-06-22 15:57:00,71.3,55.3,29.88,SW,225,7.0,-999.0,57,0.00,,,0.00,Wunderground v.1.15,2013-06-22 22:57:00,
2013-06-22 16:02:00,70.7,55.2,29.88,SW,225,8.0,-999.0,58,0.00,,,0.00,Wunderground v.1.15,2013-06-22 23:02:00,
2013-06-22 16:07:00,71.0,55.0,29.88,SW,225,6.0,-999.0,57,0.00,,,0.00,Wunderground v.1.15,2013-06-22 23:07:00,
2013-06-22 16:12:00,70.7,53.2,29.88,SW,225,7.0,-999.0,54,0.00,,,0.00,Wunderground v.1.15,2013-06-22 23:12:00,
2013-06-22 16:17:00,70.3,52.4,29.87,SW,225,8.0,-999.0,53,0.00,,,0.00,Wunderground v.1.15,2013-06-22 23:17:00,
2013-06-22 16:22:00,69.9,52.5,29.87,SW,225,7.0,-999.0,54,0.00,,,0.00,Wunderground v.1.15,2013-06-22 23:22:00,
2013-06-22 16:27:00,70.1,52.2,29.87,SW,225,6.0,-999.0,53,0.00,,,0.00,Wunderground v.1.15,2013-06-22 23:27:00,
2013-06-22 16:32:00,70.9,52.4,29.87,WNW,293,3.0,-999.0,52,0.00,,,0.00,Wunderground v.1.15,2013-06-22 23:32:00,
2013-06-22 16:37:00,70.9,52.9,29.87,SW,225,7.0,-999.0,53,0.00,,,0.00,Wunderground v.1.15,2013-06-22 23:37:00,
2013-06-22 16:42:00,70.5,51.5,29.86,SW,225,5.0,-999.0,51,0.00,,,0.00,Wunderground v.1.15,2013-06-22 23:42:00,
2013-06-22 16:47:00,70.4,51.9,29.86,SW,225,4.0,-999.0,52,0.00,,,0.00,Wunderground v.1.15,2013-06-22 23:47:00,
2013-06-22 16:52:00,71.1,52.0,29.86,South,180,3.0,-999.0,51,0.00,,,0.00,Wunderground v.1.15,2013-06-22 23:52:00,
2013-06-22 16:57:00,71.3,53.3,29.86,SW,225,5.0,-999.0,53,0.00,,,0.00,Wunderground v.1.15,2013-06-22 23:57:00,
2013-06-22 17:02:00,70.9,52.9,29.86,WSW,248,5.0,-999.0,53,0.00,,,0.00,Wunderground v.1.15,2013-06-23 00:02:00,
2013-06-22 17:07:00,71.0,52.5,29.86,WSW,248,3.0,-999.0,52,0.00,,,0.00,Wunderground v.1.15,2013-06-23 00:07:00,
2013-06-22 17:12:00,71.3,53.3,29.86,SW,225,4.0,-999.0,53,0.00,,,0.00,Wunderground v.1.15,2013-06-23 00:12:00,
2013-06-22 17:17:00,71.0,53.0,29.85,SW,225,6.0,-999.0,53,0.00,,,0.00,Wunderground v.1.15,2013-06-23 00:17:00,
2013-06-22 17:22:00,70.1,52.7,29.85,SW,225,5.0,-999.0,54,0.00,,,0.00,Wunderground v.1.15,2013-06-23 00:22:00,
2013-06-22 17:27:00,69.8,52.9,29.85,SW,225,5.0,-999.0,55,0.00,,,0.00,Wunderground v.1.15,2013-06-23 00:27:00,
2013-06-22 17:32:00,70.1,53.2,29.85,SW,225,3.0,-999.0,55,0.00,,,0.00,Wunderground v.1.15,2013-06-23 00:32:00,
2013-06-22 17:37:00,70.0,52.6,29.85,SW,225,4.0,-999.0,54,0.00,,,0.00,Wunderground v.1.15,2013-06-23 00:37:00,
2013-06-22 17:42:00,70.3,53.4,29.85,WSW,248,4.0,-999.0,55,0.00,,,0.00,Wunderground v.1.15,2013-06-23 00:42:00,
2013-06-22 17:47:00,70.6,53.1,29.85,SW,225,4.0,-999.0,54,0.00,,,0.00,Wunderground v.1.15,2013-06-23 00:47:00,
2013-06-22 17:52:00,70.3,53.4,29.84,SW,225,3.0,-999.0,55,0.00,,,0.00,Wunderground v.1.15,2013-06-23 00:52:00,
2013-06-22 17:57:00,70.1,53.7,29.85,SW,225,4.0,-999.0,56,0.00,,,0.00,Wunderground v.1.15,2013-06-23 00:57:00,
2013-06-22 18:02:00,69.8,53.4,29.85,South,180,3.0,-999.0,56,0.00,,,0.00,Wunderground v.1.15,2013-06-23 01:02:00,
2013-06-22 18:07:00,69.8,53.9,29.85,WSW,248,4.0,-999.0,57,0.00,,,0.00,Wunderground v.1.15,2013-06-23 01:07:00,
2013-06-22 18:12:00,70.2,53.8,29.85,SW,225,4.0,-999.0,56,0.00,,,0.00,Wunderground v.1.15,2013-06-23 01:12:00,
2013-06-22 18:17:00,70.5,53.6,29.85,SW,225,4.0,-999.0,55,0.00,,,0.00,Wunderground v.1.15,2013-06-23 01:17:00,
2013-06-22 18:22:00,70.4,54.4,29.85,WSW,248,4.0,-999.0,57,0.00,,,0.00,Wunderground v.1.15,2013-06-23 01:22:00,
2013-06-22 18:27:00,70.1,54.2,29.85,SW,225,5.0,-999.0,57,0.00,,,0.00,Wunderground v.1.15,2013-06-23 01:27:00,
2013-06-22 18:32:00,69.4,54.0,29.84,WSW,248,5.0,-999.0,58,0.00,,,0.00,Wunderground v.1.15,2013-06-23 01:32:00,
2013-06-22 18:37:00,69.2,53.8,29.84,SW,225,4.0,-999.0,58,0.00,,,0.00,Wunderground v.1.15,2013-06-23 01:37:00,
2013-06-22 18:42:00,68.6,53.7,29.84,SW,225,4.0,-999.0,59,0.00,,,0.00,Wunderground v.1.15,2013-06-23 01:42:00,
2013-06-22 18:47:00,67.9,54.0,29.84,WSW,248,4.0,-999.0,61,0.00,,,0.00,Wunderground v.1.15,2013-06-23 01:47:00,
2013-06-22 18:52:00,67.3,54.3,29.84,SW,225,4.0,-999.0,63,0.00,,,0.00,Wunderground v.1.15,2013-06-23 01:52:00,
2013-06-22 18:57:00,66.8,54.2,29.84,SW,225,5.0,-999.0,64,0.00,,,0.00,Wunderground v.1.15,2013-06-23 01:57:00,
2013-06-22 19:02:00,66.3,54.2,29.84,WSW,248,5.0,-999.0,65,0.00,,,0.00,Wunderground v.1.15,2013-06-23 02:02:00,
2013-06-22 19:07:00,66.0,54.3,29.85,SW,225,6.0,-999.0,66,0.00,,,0.00,Wunderground v.1.15,2013-06-23 02:07:00,
2013-06-22 19:12:00,65.6,53.9,29.85,WSW,248,5.0,-999.0,66,0.00,,,0.00,Wunderground v.1.15,2013-06-23 02:12:00,
2013-06-22 19:17:00,65.2,54.0,29.85,WSW,248,5.0,-999.0,67,0.00,,,0.00,Wunderground v.1.15,2013-06-23 02:17:00,
2013-06-22 19:22:00,64.9,54.1,29.85,WSW,248,4.0,-999.0,68,0.00,,,0.00,Wunderground v.1.15,2013-06-23 02:22:00,
2013-06-22 19:27:00,65.0,54.6,29.85,WSW,248,5.0,-999.0,69,0.00,,,0.00,Wunderground v.1.15,2013-06-23 02:27:00,
2013-06-22 19:32:00,65.1,54.7,29.85,SW,225,5.0,-999.0,69,0.00,,,0.00,Wunderground v.1.15,2013-06-23 02:32:00,
2013-06-22 19:37:00,64.9,54.5,29.85,SW,225,3.0,-999.0,69,0.00,,,0.00,Wunderground v.1.15,2013-06-23 02:37:00,
2013-06-22 19:42:00,64.5,53.7,29.85,WSW,248,5.0,-999.0,68,0.00,,,0.00,Wunderground v.1.15,2013-06-23 02:42:00,
2013-06-22 19:47:00,64.0,54.0,29.85,SW,225,3.0,-999.0,70,0.00,,,0.00,Wunderground v.1.15,2013-06-23 02:47:00,
2013-06-22 19:52:00,63.8,54.2,29.84,SW,225,2.0,-999.0,71,0.00,,,0.00,Wunderground v.1.15,2013-06-23 02:52:00,
2013-06-22 19:57:00,64.1,54.5,29.85,SW,225,2.0,-999.0,71,0.00,,,0.00,Wunderground v.1.15,2013-06-23 02:57:00,
2013-06-22 20:02:00,64.0,54.8,29.85,SSE,158,3.0,-999.0,72,0.00,,,0.00,Wunderground v.1.15,2013-06-23 03:02:00,
2013-06-22 20:07:00,63.5,54.7,29.85,SSE,158,4.0,-999.0,73,0.00,,,0.00,Wunderground v.1.15,2013-06-23 03:07:00,
2013-06-22 20:12:00,63.1,54.7,29.85,SW,225,2.0,-999.0,74,0.00,,,0.00,Wunderground v.1.15,2013-06-23 03:12:00,
2013-06-22 20:17:00,62.6,54.6,29.85,SSE,158,3.0,-999.0,75,0.00,,,0.00,Wunderground v.1.15,2013-06-23 03:17:00,
2013-06-22 20:22:00,62.1,54.4,29.85,SSE,158,4.0,-999.0,76,0.00,,,0.00,Wunderground v.1.15,2013-06-23 03:22:00,
2013-06-22 20:27:00,61.6,54.3,29.85,SSE,158,3.0,-999.0,77,0.00,,,0.00,Wunderground v.1.15,2013-06-23 03:27:00,
2013-06-22 20:32:00,61.4,54.1,29.85,WSW,248,3.0,-999.0,77,0.00,,,0.00,Wunderground v.1.15,2013-06-23 03:32:00,
2013-06-22 20:37:00,61.0,54.1,29.85,SSE,158,3.0,-999.0,78,0.00,,,0.00,Wunderground v.1.15,2013-06-23 03:37:00,
2013-06-22 20:42:00,60.6,54.0,29.85,SSE,158,3.0,-999.0,79,0.00,,,0.00,Wunderground v.1.15,2013-06-23 03:42:00,
2013-06-22 20:47:00,60.4,54.2,29.85,South,180,2.0,-999.0,80,0.00,,,0.00,Wunderground v.1.15,2013-06-23 03:47:00,
2013-06-22 20:52:00,60.2,54.0,29.85,SSE,158,1.0,-999.0,80,0.00,,,0.00,Wunderground v.1.15,2013-06-23 03:52:00,
2013-06-22 20:57:00,59.9,54.1,29.86,SSW,203,4.0,-999.0,81,0.00,,,0.00,Wunderground v.1.15,2013-06-23 03:57:00,
2013-06-22 21:02:00,59.6,54.1,29.85,SW,225,4.0,-999.0,82,0.00,,,0.00,Wunderground v.1.15,2013-06-23 04:02:00,
2013-06-22 21:07:00,59.2,54.4,29.86,SW,225,4.0,-999.0,84,0.00,,,0.00,Wunderground v.1.15,2013-06-23 04:07:00,
2013-06-22 21:12:00,58.7,54.2,29.86,SW,225,7.0,-999.0,85,0.00,,,0.00,Wunderground v.1.15,2013-06-23 04:12:00,
2013-06-22 21:17:00,58.2,54.0,29.86,SW,225,5.0,-999.0,86,0.00,,,0.00,Wunderground v.1.15,2013-06-23 04:17:00,
2013-06-22 21:22:00,57.9,54.1,29.86,SW,225,4.0,-999.0,87,0.00,,,0.00,Wunderground v.1.15,2013-06-23 04:22:00,
2013-06-22 21:27:00,57.8,54.3,29.86,SW,225,3.0,-999.0,88,0.00,,,0.00,Wunderground v.1.15,2013-06-23 04:27:00,
2013-06-22 21:32:00,57.7,54.2,29.86,SSW,203,3.0,-999.0,88,0.00,,,0.00,Wunderground v.1.15,2013-06-23 04:32:00,
2013-06-22 21:37:00,57.6,54.1,29.86,SW,225,3.0,-999.0,88,0.00,,,0.00,Wunderground v.1.15,2013-06-23 04:37:00,
2013-06-22 21:42:00,57.5,54.3,29.87,SW,225,3.0,-999.0,89,0.00,,,0.00,Wunderground v.1.15,2013-06-23 04:42:00,
2013-06-22 21:47:00,57.4,54.2,29.87,SW,225,3.0,-999.0,89,0.00,,,0.00,Wunderground v.1.15,2013-06-23 04:47:00,
2013-06-22 21:52:00,57.4,54.2,29.87,SSW,203,2.0,-999.0,89,0.00,,,0.00,Wunderground v.1.15,2013-06-23 04:52:00,
2013-06-22 21:57:00,57.4,54.5,29.87,WSW,248,3.0,-999.0,90,0.00,,,0.00,Wunderground v.1.15,2013-06-23 04:57:00,
2013-06-22 22:02:00,57.4,54.5,29.87,SW,225,2.0,-999.0,90,0.00,,,0.00,Wunderground v.1.15,2013-06-23 05:02:00,
2013-06-22 22:07:00,57.4,54.5,29.87,SW,225,2.0,-999.0,90,0.00,,,0.00,Wunderground v.1.15,2013-06-23 05:07:00,
2013-06-22 22:12:00,57.3,54.4,29.88,WSW,248,4.0,-999.0,90,0.00,,,0.00,Wunderground v.1.15,2013-06-23 05:12:00,
2013-06-22 22:17:00,57.0,54.1,29.88,SW,225,3.0,-999.0,90,0.00,,,0.00,Wunderground v.1.15,2013-06-23 05:17:00,
2013-06-22 22:22:00,56.9,54.0,29.88,SW,225,2.0,-999.0,90,0.00,,,0.00,Wunderground v.1.15,2013-06-23 05:22:00,
2013-06-22 22:27:00,56.8,54.2,29.88,SSE,158,2.0,-999.0,91,0.00,,,0.00,Wunderground v.1.15,2013-06-23 05:27:00,
2013-06-22 22:32:00,56.7,54.1,29.88,SSE,158,2.0,-999.0,91,0.00,,,0.00,Wunderground v.1.15,2013-06-23 05:32:00,
2013-06-22 22:37:00,56.7,54.1,29.88,SSE,158,2.0,-999.0,91,0.00,,,0.00,Wunderground v.1.15,2013-06-23 05:37:00,
2013-06-22 22:42:00,56.6,54.0,29.88,South,180,3.0,-999.0,91,0.00,,,0.00,Wunderground v.1.15,2013-06-23 05:42:00,
2013-06-22 22:47:00,56.5,53.9,29.87,SSE,158,2.0,-999.0,91,0.00,,,0.00,Wunderground v.1.15,2013-06-23 05:47:00,
2013-06-22 22:52:00,56.4,53.8,29.87,South,180,1.0,-999.0,91,0.00,,,0.00,Wunderground v.1.15,2013-06-23 05:52:00,
2013-06-22 22:57:00,56.4,53.8,29.87,SSE,158,3.0,-999.0,91,0.00,,,0.00,Wunderground v.1.15,2013-06-23 05:57:00,
2013-06-22 23:02:00,56.4,53.8,29.87,South,180,2.0,-999.0,91,0.00,,,0.00,Wunderground v.1.15,2013-06-23 06:02:00,
2013-06-22 23:07:00,56.3,53.7,29.87,South,180,2.0,-999.0,91,0.00,,,0.00,Wunderground v.1.15,2013-06-23 06:07:00,
2013-06-22 23:12:00,56.3,53.7,29.87,SSE,158,1.0,-999.0,91,0.00,,,0.00,Wunderground v.1.15,2013-06-23 06:12:00,
2013-06-22 23:17:00,56.3,53.7,29.87,SSE,158,1.0,-999.0,91,0.00,,,0.00,Wunderground v.1.15,2013-06-23 06:17:00,
2013-06-22 23:22:00,56.3,53.7,29.86,SE,135,2.0,-999.0,91,0.00,,,0.00,Wunderground v.1.15,2013-06-23 06:22:00,
2013-06-22 23:27:00,56.3,54.0,29.86,SE,135,4.0,-999.0,92,0.00,,,0.00,Wunderground v.1.15,2013-06-23 06:27:00,
2013-06-22 23:32:00,56.2,53.9,29.86,SSE,158,3.0,-999.0,92,0.00,,,0.00,Wunderground v.1.15,2013-06-23 06:32:00,
2013-06-22 23:37:00,56.2,53.9,29.86,SSE,158,2.0,-999.0,92,0.00,,,0.00,Wunderground v.1.15,2013-06-23 06:37:00,
2013-06-22 23:42:00,56.1,53.8,29.86,SSE,158,2.0,-999.0,92,0.00,,,0.00,Wunderground v.1.15,2013-06-23 06:42:00,
2013-06-22 23:47:00,56.2,53.9,29.86,SE,135,2.0,-999.0,92,0.00,,,0.00,Wunderground v.1.15,2013-06-23 06:47:00,
2013-06-22 23:52:00,56.2,53.9,29.86,SSE,158,2.0,-999.0,92,0.00,,,0.00,Wunderground v.1.15,2013-06-23 06:52:00,
2013-06-22 23:57:00,56.1,53.8,29.86,South,180,2.0,-999.0,92,0.00,,,0.00,Wunderground v.1.15,2013-06-23 06:57:00,